Hlavní strana
METAR-TAF:

METAR-TAF

Letiště :

Parsons, Tennessee, Spojené státy americké

zeměpisná šířka: 35-39-23N, zeměpisná délka: 088-11-43W, výška: 149 m

Aktuální stav počasí

Zpráva byla vytvořena před 24 minutami, v 11:15 UTC
Jihozápadní vítr 5 kt
Teplota 6°C
Vlhkost vzduchu 93%
Tlak 1012 hPa
Viditelnost: 16.1 km
Oblačno až skoro zataženo ve výšce 600 ft
Zataženo ve výšce 1300 ft

METAR: KPVE 241115Z AUTO 22005KT 10SM BKN006 OVC013 06/05 A2989 RMK A01

Čas: 05:39 (11:39 UTC)


TAF: chybějící

Stav a předpovědi počasí z více než 4 000 letišť (zprávy METAR a TAF).

Červené a žluté tečky na mapě představují dostupné meteorologické stanice.

Když kurzor umístíte na tečku, zobrazí se název stanice.

Pak kliknutím zobrazíte stav a předpověď počasí.

Chcete-li změnit mapu, kliknutím na zelené tlačítko se znaménkem +mapu přiblížíte, kliknutím na zelené tlačítko se znaménkem – mapu oddálíte a kliknutím na zelené šipky přejdete na sousední mapy.


METAR-TAF: